Brighton, Massachusetts
Current Conditions -  °F | °C
As of 9:54 AM on Monday 22 Dec 2014 (Local Time) from KBOS Reporting Station
Broken Clouds Broken Clouds  
Wind Chill: 31°   Ceiling: 2800
Heat Index: 38°   Visibility: 10mi
Dew Point: 32°   Wind: 9mph
Humidity: 79%   Direction: 20°NNE
Pressure: 30.4"   Gusts: NA
Location:  42.35°N, 71.15°W
Report Text: KBOS 221454Z 02008KT 10SM FEW011 BKN028 BKN055 03/00 A3040 RMK AO2 SLP292 T00330000 51004
Loading
Personal Weather Stations






























Interactive Weather Map New forecast layout! Learn more

10-Day Weather Forecast

Advertisements
Track Severe Weather on mobile